createdAt,value
2018-07-24T00:00:32.618Z,0
2018-07-24T00:01:47.364Z,0
2018-07-24T00:03:02.107Z,0
2018-07-24T00:04:16.627Z,0
2018-07-24T00:05:31.291Z,0
2018-07-24T00:06:45.538Z,0
2018-07-24T00:08:00.291Z,0
2018-07-24T00:09:15.303Z,0
2018-07-24T00:10:30.272Z,0
2018-07-24T00:11:44.525Z,0
2018-07-24T00:12:58.764Z,0
2018-07-24T00:14:13.540Z,0
2018-07-24T00:15:27.564Z,0
2018-07-24T00:16:42.601Z,0
2018-07-24T00:17:56.593Z,0
2018-07-24T00:19:11.157Z,0
2018-07-24T00:20:25.372Z,0
2018-07-24T00:21:40.108Z,0
2018-07-24T00:22:54.317Z,0
2018-07-24T00:24:08.856Z,0
2018-07-24T00:25:23.060Z,0
2018-07-24T00:26:37.134Z,0
2018-07-24T00:27:51.604Z,0
2018-07-24T00:29:06.127Z,0
2018-07-24T00:30:20.602Z,0
2018-07-24T00:31:35.713Z,0
2018-07-24T00:32:49.929Z,0
2018-07-24T00:34:03.895Z,0
2018-07-24T00:35:18.641Z,0
2018-07-24T00:36:33.183Z,0
2018-07-24T00:37:47.903Z,0
2018-07-24T00:39:01.870Z,0
2018-07-24T00:40:16.354Z,0
2018-07-24T00:41:31.133Z,0
2018-07-24T00:42:45.617Z,0
2018-07-24T00:44:00.118Z,0
2018-07-24T00:45:15.022Z,0
2018-07-24T00:46:29.261Z,0
2018-07-24T00:47:44.421Z,0
2018-07-24T00:48:58.950Z,0
2018-07-24T00:50:12.715Z,0
2018-07-24T00:51:27.530Z,0
2018-07-24T00:52:42.058Z,0
2018-07-24T00:53:56.550Z,0
2018-07-24T00:55:10.816Z,0
2018-07-24T00:56:25.274Z,0
2018-07-24T00:57:39.225Z,0
2018-07-24T00:58:53.727Z,0
2018-07-24T01:00:08.464Z,0
2018-07-24T01:01:22.703Z,0
2018-07-24T01:02:36.356Z,0
2018-07-24T01:03:50.868Z,0
2018-07-24T01:05:05.353Z,0
2018-07-24T01:06:20.316Z,0
2018-07-24T01:07:35.352Z,0
2018-07-24T01:08:49.946Z,0
2018-07-24T01:10:04.721Z,0
2018-07-24T01:11:18.733Z,0
2018-07-24T01:12:32.960Z,0
2018-07-24T01:13:47.391Z,0
2018-07-24T01:15:01.910Z,0
2018-07-24T01:16:16.637Z,0
2018-07-24T01:17:31.435Z,0
2018-07-24T01:18:46.485Z,0
2018-07-24T01:20:00.152Z,0
2018-07-24T01:21:14.381Z,0
2018-07-24T01:22:29.057Z,0
2018-07-24T01:23:43.996Z,0
2018-07-24T01:24:58.661Z,0
2018-07-24T01:26:13.355Z,0
2018-07-24T01:27:27.276Z,0
2018-07-24T01:28:40.952Z,0
2018-07-24T01:29:55.386Z,0
2018-07-24T01:31:09.795Z,0
2018-07-24T01:32:23.966Z,0
2018-07-24T01:33:38.892Z,0
2018-07-24T01:34:53.616Z,0
2018-07-24T01:36:07.559Z,0
2018-07-24T01:37:22.246Z,0
2018-07-24T01:38:36.610Z,0
2018-07-24T01:39:51.793Z,0
2018-07-24T01:41:06.752Z,0
2018-07-24T01:42:21.688Z,0
2018-07-24T01:43:36.073Z,0
2018-07-24T01:44:50.519Z,0
2018-07-24T01:46:04.494Z,0
2018-07-24T01:47:18.420Z,0
2018-07-24T01:48:32.812Z,0
2018-07-24T01:49:47.732Z,0
2018-07-24T01:51:01.931Z,0
2018-07-24T01:52:16.370Z,0
2018-07-24T01:53:31.050Z,0
2018-07-24T01:54:45.231Z,0
2018-07-24T01:55:59.890Z,0
2018-07-24T01:57:14.065Z,0
2018-07-24T01:58:28.492Z,0
2018-07-24T01:59:43.202Z,0
2018-07-24T02:00:57.141Z,0
2018-07-24T02:02:11.860Z,0
2018-07-24T02:03:25.579Z,0
2018-07-24T02:04:40.053Z,0
2018-07-24T02:05:54.470Z,0
2018-07-24T02:07:09.223Z,0
2018-07-24T02:08:23.144Z,0
2018-07-24T02:09:37.602Z,0
2018-07-24T02:10:52.272Z,0
2018-07-24T02:12:06.701Z,0
2018-07-24T02:13:21.081Z,0
2018-07-24T02:14:36.271Z,0
2018-07-24T02:15:50.965Z,0
2018-07-24T02:17:05.124Z,0
2018-07-24T02:18:19.762Z,0
2018-07-24T02:19:34.579Z,0
2018-07-24T02:20:49.562Z,0
2018-07-24T02:22:03.718Z,0
2018-07-24T02:23:18.397Z,0
2018-07-24T02:24:33.063Z,0
2018-07-24T02:25:47.934Z,0
2018-07-24T02:27:02.630Z,0
2018-07-24T02:28:16.833Z,0
2018-07-24T02:29:31.269Z,0
2018-07-24T02:30:45.686Z,0
2018-07-24T02:31:59.983Z,0
2018-07-24T02:33:14.661Z,0
2018-07-24T02:34:28.872Z,0
2018-07-24T02:35:43.353Z,0
2018-07-24T02:36:57.542Z,0
2018-07-24T02:38:12.454Z,0
2018-07-24T02:39:27.108Z,0
2018-07-24T02:40:41.829Z,0
2018-07-24T02:41:56.261Z,0
2018-07-24T02:43:10.459Z,0
2018-07-24T02:44:24.910Z,0
2018-07-24T02:45:39.635Z,0
2018-07-24T02:46:53.610Z,0
2018-07-24T02:48:08.560Z,0
2018-07-24T02:49:23.197Z,0
2018-07-24T02:50:37.362Z,0
2018-07-24T02:51:51.809Z,0
2018-07-24T02:53:05.991Z,0
2018-07-24T02:54:20.496Z,0
2018-07-24T02:55:35.444Z,0
2018-07-24T02:56:50.355Z,0
2018-07-24T02:58:05.050Z,0
2018-07-24T02:59:19.756Z,0
2018-07-24T03:00:34.199Z,0
2018-07-24T03:01:48.750Z,0
2018-07-24T03:03:03.422Z,0
2018-07-24T03:04:17.611Z,0
2018-07-24T03:05:31.295Z,0
2018-07-24T03:06:46.135Z,0
2018-07-24T03:08:00.799Z,0
2018-07-24T03:09:15.506Z,0
2018-07-24T03:10:29.984Z,0
2018-07-24T03:11:44.416Z,0
2018-07-24T03:12:59.089Z,0
2018-07-24T03:14:13.493Z,0
2018-07-24T03:15:27.426Z,0
2018-07-24T03:16:42.187Z,0
2018-07-24T03:17:57.120Z,0
2018-07-24T03:19:11.804Z,0
2018-07-24T03:24:53.236Z,0
2018-07-24T03:26:07.539Z,0
2018-07-24T03:27:21.631Z,0
2018-07-24T03:28:36.100Z,0
2018-07-24T03:29:50.642Z,0
2018-07-24T03:31:05.096Z,0
2018-07-24T03:32:20.103Z,0
2018-07-24T03:33:34.042Z,0
2018-07-24T03:34:49.926Z,0
2018-07-24T03:36:04.604Z,0
2018-07-24T03:37:19.070Z,0
2018-07-24T03:38:32.756Z,5
2018-07-24T03:39:47.545Z,5
2018-07-24T03:41:01.436Z,5
2018-07-24T03:42:16.334Z,5
2018-07-24T03:43:29.985Z,5
2018-07-24T03:44:44.658Z,5
2018-07-24T03:45:59.323Z,5
2018-07-24T03:47:13.472Z,10
2018-07-24T03:48:28.113Z,10
2018-07-24T03:49:42.533Z,10
2018-07-24T03:50:57.243Z,10
2018-07-24T03:52:11.860Z,10
2018-07-24T03:53:26.213Z,15
2018-07-24T03:54:40.906Z,15
2018-07-24T03:55:55.372Z,15
2018-07-24T03:57:10.292Z,15
2018-07-24T03:58:24.963Z,20
2018-07-24T03:59:38.879Z,20
2018-07-24T04:00:53.550Z,20
2018-07-24T04:02:08.513Z,25
2018-07-24T04:03:22.316Z,25
2018-07-24T04:04:37.184Z,30
2018-07-24T04:05:51.666Z,30
2018-07-24T04:07:05.654Z,35
2018-07-24T04:08:20.065Z,35
2018-07-24T04:09:34.011Z,40
2018-07-24T04:10:47.903Z,45
2018-07-24T04:12:02.326Z,50
2018-07-24T04:13:16.914Z,55
2018-07-24T04:14:31.370Z,55
2018-07-24T04:15:46.310Z,55
2018-07-24T04:17:01.009Z,60
2018-07-24T04:18:15.459Z,65
2018-07-24T04:19:30.058Z,65
2018-07-24T04:20:44.578Z,70
2018-07-24T04:21:59.239Z,75
2018-07-24T04:23:14.160Z,75
2018-07-24T04:24:28.714Z,80
2018-07-24T04:25:42.411Z,85
2018-07-24T04:26:56.582Z,85
2018-07-24T04:28:10.762Z,90
2018-07-24T04:29:25.660Z,95
2018-07-24T04:30:40.207Z,95
2018-07-24T04:31:54.922Z,95
2018-07-24T04:33:09.607Z,100
2018-07-24T04:34:24.324Z,105
2018-07-24T04:35:38.719Z,110
2018-07-24T04:36:53.393Z,115
2018-07-24T04:38:08.087Z,120
2018-07-24T04:39:23.227Z,120
2018-07-24T04:40:38.150Z,120
2018-07-24T04:41:52.860Z,120
2018-07-24T04:43:06.808Z,135
2018-07-24T04:44:20.543Z,140
2018-07-24T04:45:34.761Z,145
2018-07-24T04:46:48.932Z,165
2018-07-24T04:48:03.363Z,190
2018-07-24T04:49:17.553Z,205
2018-07-24T04:50:32.194Z,225
2018-07-24T04:51:46.631Z,230
2018-07-24T04:53:01.340Z,240
2018-07-24T04:54:15.519Z,250
2018-07-24T04:55:30.317Z,255
2018-07-24T04:56:44.987Z,280
2018-07-24T04:57:59.454Z,275
2018-07-24T04:59:14.180Z,280
2018-07-24T05:00:28.504Z,290
2018-07-24T05:01:42.989Z,295
2018-07-24T05:02:57.667Z,305
2018-07-24T05:04:12.206Z,315
2018-07-24T05:05:26.669Z,315
2018-07-24T05:06:41.431Z,305
2018-07-24T05:07:56.203Z,330
2018-07-24T05:09:11.180Z,355
2018-07-24T05:10:26.111Z,370
2018-07-24T05:11:40.084Z,395
2018-07-24T05:12:54.792Z,385
2018-07-24T05:14:09.564Z,390
2018-07-24T05:15:23.521Z,420
2018-07-24T05:16:37.275Z,430
2018-07-24T05:17:51.753Z,460
2018-07-24T05:19:05.907Z,485
2018-07-24T05:20:20.103Z,490
2018-07-24T05:21:35.199Z,495
2018-07-24T05:22:49.123Z,490
2018-07-24T05:24:04.037Z,485
2018-07-24T05:25:18.756Z,495
2018-07-24T05:26:33.960Z,535
2018-07-24T05:27:48.688Z,525
2018-07-24T05:29:02.905Z,515
2018-07-24T05:30:17.403Z,540
2018-07-24T05:31:32.146Z,550
2018-07-24T05:32:46.842Z,520
2018-07-24T05:34:01.314Z,345
2018-07-24T05:35:15.312Z,180
2018-07-24T05:36:29.343Z,175
2018-07-24T05:37:44.079Z,175
2018-07-24T05:38:58.860Z,175
2018-07-24T05:40:13.578Z,175
2018-07-24T05:41:28.882Z,175
2018-07-24T05:42:43.568Z,175
2018-07-24T05:43:58.016Z,175
2018-07-24T05:45:12.448Z,175
2018-07-24T05:46:27.369Z,180
2018-07-24T05:47:41.899Z,175
2018-07-24T05:48:56.860Z,175
2018-07-24T05:50:11.605Z,175
2018-07-24T05:51:26.567Z,175
2018-07-24T05:52:41.355Z,175
2018-07-24T05:53:55.789Z,175
2018-07-24T05:55:10.559Z,175
2018-07-24T05:56:25.722Z,175
2018-07-24T05:57:40.596Z,175
2018-07-24T05:58:55.006Z,175
2018-07-24T06:00:09.962Z,175
2018-07-24T06:01:24.135Z,175
2018-07-24T06:02:38.727Z,175
2018-07-24T06:03:53.172Z,175
2018-07-24T06:05:07.625Z,175
2018-07-24T06:06:22.621Z,175
2018-07-24T06:07:36.840Z,175
2018-07-24T06:08:51.314Z,175
2018-07-24T06:10:05.992Z,175
2018-07-24T06:11:20.674Z,175
2018-07-24T06:12:34.948Z,175
2018-07-24T06:13:49.111Z,175
2018-07-24T06:15:03.806Z,175
2018-07-24T06:16:17.741Z,175
2018-07-24T06:17:32.600Z,175
2018-07-24T06:18:47.057Z,175
2018-07-24T06:20:01.511Z,175
2018-07-24T06:21:16.209Z,180
2018-07-24T06:22:31.134Z,175
2018-07-24T06:23:46.635Z,175
2018-07-24T06:25:01.366Z,175
2018-07-24T06:26:15.569Z,180
2018-07-24T06:27:30.270Z,180
2018-07-24T06:28:45.140Z,180
2018-07-24T06:30:00.259Z,180
2018-07-24T06:31:15.221Z,180
2018-07-24T06:32:29.919Z,185
2018-07-24T06:33:44.721Z,185
2018-07-24T06:34:59.351Z,185
2018-07-24T06:36:14.185Z,185
2018-07-24T06:37:28.617Z,185
2018-07-24T06:38:43.270Z,185
2018-07-24T06:39:57.742Z,185
2018-07-24T06:41:11.416Z,185
2018-07-24T06:42:25.641Z,185
2018-07-24T06:43:40.272Z,185
2018-07-24T06:44:54.946Z,185
2018-07-24T06:46:09.900Z,185
2018-07-24T06:47:24.822Z,185
2018-07-24T06:48:39.643Z,185
2018-07-24T06:49:54.336Z,185
2018-07-24T06:51:09.162Z,185
2018-07-24T06:52:23.037Z,185
2018-07-24T06:53:37.263Z,185
2018-07-24T06:54:51.462Z,180
2018-07-24T06:56:06.161Z,180
2018-07-24T06:57:20.651Z,185
2018-07-24T06:58:35.391Z,185
2018-07-24T06:59:50.134Z,185
2018-07-24T07:01:04.833Z,185
2018-07-24T07:02:19.972Z,185
2018-07-24T07:03:34.476Z,185
2018-07-24T07:04:49.125Z,185
2018-07-24T07:06:04.146Z,185
2018-07-24T07:07:18.350Z,185
2018-07-24T07:08:32.802Z,185
2018-07-24T07:09:47.865Z,185
2018-07-24T07:11:02.573Z,185
2018-07-24T07:12:16.776Z,185
2018-07-24T07:13:31.477Z,185
2018-07-24T07:14:46.740Z,185
2018-07-24T07:16:01.461Z,185
2018-07-24T07:17:16.172Z,185
2018-07-24T07:18:30.375Z,185
2018-07-24T07:19:44.726Z,180
2018-07-24T07:20:58.941Z,180
2018-07-24T07:22:13.139Z,180
2018-07-24T07:23:28.036Z,180
2018-07-24T07:24:42.692Z,180
2018-07-24T07:25:57.141Z,180
2018-07-24T07:27:11.798Z,180
2018-07-24T07:28:25.997Z,180
2018-07-24T07:29:40.444Z,180
2018-07-24T07:30:54.678Z,180
2018-07-24T07:32:08.975Z,180
2018-07-24T07:33:23.783Z,180
2018-07-24T07:34:38.493Z,180
2018-07-24T07:35:53.031Z,180
2018-07-24T07:37:07.240Z,180
2018-07-24T07:38:21.695Z,180
2018-07-24T07:39:36.169Z,180
2018-07-24T07:40:51.427Z,180
2018-07-24T07:42:06.598Z,185
2018-07-24T07:43:21.553Z,180
2018-07-24T07:44:35.581Z,180
2018-07-24T07:45:50.149Z,175
2018-07-24T07:47:04.874Z,175
2018-07-24T07:48:19.161Z,175
2018-07-24T07:49:33.621Z,175
2018-07-24T07:51:02.923Z,175
2018-07-24T07:52:17.717Z,175
2018-07-24T07:53:32.013Z,175
2018-07-24T07:54:46.468Z,170
2018-07-24T07:56:00.978Z,170
2018-07-24T07:57:15.735Z,170
2018-07-24T07:58:30.181Z,170
2018-07-24T07:59:44.710Z,170
2018-07-24T08:00:59.156Z,170
2018-07-24T08:02:13.873Z,170
2018-07-24T08:03:28.301Z,170
2018-07-24T08:04:42.802Z,170
2018-07-24T08:05:57.370Z,170
2018-07-24T08:07:11.585Z,170
2018-07-24T08:08:26.081Z,165
2018-07-24T08:09:40.822Z,165
2018-07-24T08:10:55.175Z,165
2018-07-24T08:12:09.360Z,165
2018-07-24T08:13:23.616Z,165
2018-07-24T08:14:37.559Z,165
2018-07-24T08:15:52.103Z,165
2018-07-24T08:17:06.604Z,170
2018-07-24T08:18:21.578Z,165
2018-07-24T08:19:36.006Z,165
2018-07-24T08:20:50.667Z,165
2018-07-24T08:22:06.040Z,165
2018-07-24T08:23:20.292Z,165
2018-07-24T08:24:34.984Z,165
2018-07-24T08:25:48.973Z,160
2018-07-24T08:27:03.074Z,160
2018-07-24T08:28:17.727Z,160
2018-07-24T08:29:32.691Z,160
2018-07-24T08:30:47.820Z,160
2018-07-24T08:32:02.443Z,160
2018-07-24T08:33:17.163Z,160
2018-07-24T08:34:32.132Z,160
2018-07-24T08:35:46.340Z,160
2018-07-24T08:37:01.294Z,160
2018-07-24T08:38:15.775Z,160
2018-07-24T08:39:30.517Z,160
2018-07-24T08:40:44.461Z,160
2018-07-24T08:41:59.430Z,155
2018-07-24T08:43:13.646Z,155
2018-07-24T08:44:28.369Z,155
2018-07-24T08:45:42.638Z,155
2018-07-24T08:46:56.776Z,155
2018-07-24T08:48:11.234Z,155
2018-07-24T08:49:25.862Z,155
2018-07-24T08:50:40.085Z,155
2018-07-24T08:51:54.402Z,155
2018-07-24T08:53:10.389Z,155
2018-07-24T08:54:25.251Z,150
2018-07-24T08:55:42.603Z,150
2018-07-24T08:56:56.094Z,150
2018-07-24T08:58:11.040Z,150
2018-07-24T08:59:26.018Z,150
2018-07-24T09:00:41.183Z,150
2018-07-24T09:01:55.446Z,150
2018-07-24T09:03:10.446Z,150
2018-07-24T09:04:25.545Z,150
2018-07-24T09:05:39.749Z,145
2018-07-24T09:06:54.471Z,145
2018-07-24T09:08:09.473Z,145
2018-07-24T09:09:24.196Z,145
2018-07-24T09:10:38.436Z,145
2018-07-24T09:11:53.152Z,145
2018-07-24T09:13:08.118Z,145
2018-07-24T09:14:22.616Z,145
2018-07-24T09:15:36.733Z,145
2018-07-24T09:16:51.581Z,145
2018-07-24T09:18:06.089Z,150
2018-07-24T09:19:20.577Z,145
2018-07-24T09:20:35.284Z,140
2018-07-24T09:21:49.748Z,140
2018-07-24T09:23:04.459Z,140
2018-07-24T09:24:18.927Z,140
2018-07-24T09:25:33.398Z,140
2018-07-24T09:26:47.855Z,140
2018-07-24T09:28:02.059Z,140
2018-07-24T09:29:16.522Z,140
2018-07-24T09:30:30.199Z,140
2018-07-24T09:31:45.252Z,140
2018-07-24T09:32:59.475Z,140
2018-07-24T09:34:14.474Z,140
2018-07-24T09:35:28.687Z,140
2018-07-24T09:36:43.433Z,135
2018-07-24T09:37:57.900Z,135
2018-07-24T09:39:12.918Z,135
2018-07-24T09:40:27.538Z,135
2018-07-24T09:41:41.799Z,135
2018-07-24T09:42:55.999Z,135
2018-07-24T09:44:10.797Z,135
2018-07-24T09:45:24.775Z,135
2018-07-24T09:46:39.306Z,135
2018-07-24T09:47:53.776Z,135
2018-07-24T09:49:08.097Z,135
2018-07-24T09:50:22.563Z,135
2018-07-24T09:51:37.313Z,135
2018-07-24T09:52:51.765Z,135
2018-07-24T09:54:07.040Z,130
2018-07-24T09:55:21.486Z,130
2018-07-24T09:56:36.478Z,130
2018-07-24T09:57:51.376Z,130
2018-07-24T09:59:06.144Z,130
2018-07-24T10:00:20.958Z,130
2018-07-24T10:01:35.444Z,130
2018-07-24T10:02:49.909Z,130
2018-07-24T10:11:57.865Z,125
2018-07-24T10:13:13.644Z,125
2018-07-24T10:14:27.623Z,125
2018-07-24T10:15:42.652Z,130
2018-07-24T10:16:57.508Z,125
2018-07-24T10:18:11.092Z,125
2018-07-24T10:19:25.582Z,125
2018-07-24T10:20:39.569Z,125
2018-07-24T10:21:53.898Z,125
2018-07-24T10:23:08.110Z,125
2018-07-24T10:24:22.470Z,125
2018-07-24T10:25:37.295Z,125
2018-07-24T10:26:52.336Z,125
2018-07-24T10:28:06.564Z,125
2018-07-24T10:29:21.086Z,125
2018-07-24T10:30:36.364Z,125
2018-07-24T10:31:51.218Z,125
2018-07-24T10:33:05.634Z,125
2018-07-24T10:34:20.145Z,125
2018-07-24T10:35:35.361Z,125
2018-07-24T10:36:50.082Z,125
2018-07-24T10:38:04.730Z,125
2018-07-24T10:39:19.460Z,125
2018-07-24T10:40:34.197Z,125
2018-07-24T10:41:49.175Z,120
2018-07-24T10:43:04.106Z,125
2018-07-24T10:44:18.688Z,125
2018-07-24T10:45:32.930Z,130
2018-07-24T10:46:47.560Z,125
2018-07-24T10:48:01.695Z,125
2018-07-24T10:49:16.386Z,125
2018-07-24T10:50:31.157Z,120
2018-07-24T10:51:45.389Z,120
2018-07-24T10:53:00.683Z,120
2018-07-24T10:54:15.158Z,120
2018-07-24T10:55:29.933Z,120
2018-07-24T10:56:44.433Z,125
2018-07-24T10:57:59.264Z,125
2018-07-24T10:59:14.256Z,125
2018-07-24T11:00:29.197Z,125
2018-07-24T11:01:43.935Z,125
2018-07-24T11:02:58.030Z,125
2018-07-24T11:04:13.004Z,120
2018-07-24T11:05:28.078Z,120
2018-07-24T11:06:42.788Z,120
2018-07-24T11:07:57.346Z,120
2018-07-24T11:09:12.071Z,120
2018-07-24T11:10:26.790Z,120
2018-07-24T11:11:41.508Z,120
2018-07-24T11:12:55.735Z,120
2018-07-24T11:14:11.133Z,120
2018-07-24T11:15:25.852Z,120
2018-07-24T11:16:40.907Z,120
2018-07-24T11:17:55.652Z,120
2018-07-24T11:19:10.031Z,125
2018-07-24T11:20:24.533Z,120
2018-07-24T11:21:39.522Z,120
2018-07-24T11:22:56.360Z,120
2018-07-24T11:24:11.759Z,120
2018-07-24T11:25:26.209Z,120
2018-07-24T11:26:40.674Z,120
2018-07-24T11:27:55.149Z,120
2018-07-24T11:29:10.617Z,120
2018-07-24T11:30:25.988Z,120
2018-07-24T11:31:40.450Z,120
2018-07-24T11:32:55.356Z,120
2018-07-24T11:34:09.528Z,120
2018-07-24T11:35:24.256Z,120
2018-07-24T11:36:39.153Z,120
2018-07-24T11:37:53.869Z,120
2018-07-24T11:39:08.450Z,120
2018-07-24T11:40:22.883Z,120
2018-07-24T11:41:37.642Z,120
2018-07-24T11:42:51.868Z,120
2018-07-24T11:44:07.687Z,120
2018-07-24T11:45:22.649Z,120
2018-07-24T11:46:37.374Z,120
2018-07-24T11:47:52.194Z,120
2018-07-24T11:49:06.961Z,120
2018-07-24T11:50:20.974Z,120
2018-07-24T11:51:35.520Z,115
2018-07-24T11:52:50.119Z,120
2018-07-24T11:54:05.139Z,120
2018-07-24T11:55:20.184Z,120
2018-07-24T11:56:34.667Z,120
2018-07-24T11:57:49.669Z,120
2018-07-24T11:59:03.864Z,120
2018-07-24T12:00:18.899Z,120
2018-07-24T12:01:33.639Z,120
2018-07-24T12:02:48.337Z,120
2018-07-24T12:04:02.760Z,120
2018-07-24T12:05:17.504Z,115
2018-07-24T12:06:32.218Z,115
2018-07-24T12:07:47.104Z,120
2018-07-24T12:09:01.061Z,110
2018-07-24T12:10:15.987Z,105
2018-07-24T12:11:30.543Z,105
2018-07-24T12:12:45.359Z,105
2018-07-24T12:14:00.046Z,115
2018-07-24T12:15:14.542Z,115
2018-07-24T12:16:29.278Z,115
2018-07-24T12:17:43.470Z,115
2018-07-24T12:18:58.200Z,115
2018-07-24T12:20:12.731Z,115
2018-07-24T12:21:27.224Z,120
2018-07-24T12:22:42.206Z,120
2018-07-24T12:23:56.700Z,115
2018-07-24T12:25:11.285Z,115
2018-07-24T12:26:26.039Z,115
2018-07-24T12:27:40.521Z,115
2018-07-24T12:28:55.460Z,115
2018-07-24T12:30:10.145Z,115
2018-07-24T12:31:24.881Z,115
2018-07-24T12:32:39.639Z,120
2018-07-24T12:33:54.155Z,120
2018-07-24T12:35:08.461Z,120
2018-07-24T12:36:23.581Z,120
2018-07-24T12:37:38.656Z,120
2018-07-24T12:38:53.361Z,120
2018-07-24T12:40:08.393Z,120
2018-07-24T12:41:23.048Z,125
2018-07-24T12:42:37.574Z,125
2018-07-24T12:43:52.712Z,130
2018-07-24T12:45:07.508Z,130
2018-07-24T12:46:22.093Z,125
2018-07-24T12:47:36.604Z,120
2018-07-24T12:48:51.163Z,115
2018-07-24T12:50:06.184Z,120
2018-07-24T12:51:21.140Z,120
2018-07-24T12:52:36.358Z,120
2018-07-24T12:53:51.187Z,120
2018-07-24T12:55:05.956Z,120
2018-07-24T12:56:20.297Z,125
2018-07-24T12:57:35.273Z,115
2018-07-24T12:58:49.756Z,105
2018-07-24T13:00:04.228Z,110
2018-07-24T13:01:19.180Z,115
2018-07-24T13:02:34.446Z,120
2018-07-24T13:03:48.980Z,120
2018-07-24T13:05:02.995Z,110
2018-07-24T13:06:18.118Z,115
2018-07-24T13:07:32.601Z,120
2018-07-24T13:08:47.545Z,130
2018-07-24T13:10:02.825Z,135
2018-07-24T13:11:17.793Z,130
2018-07-24T13:12:32.251Z,130
2018-07-24T13:13:46.997Z,125
2018-07-24T13:15:01.730Z,135
2018-07-24T13:16:16.485Z,130
2018-07-24T13:17:30.766Z,135
2018-07-24T13:18:45.545Z,145
2018-07-24T13:20:00.007Z,140
2018-07-24T13:21:14.209Z,135
2018-07-24T13:22:27.918Z,120
2018-07-24T13:23:42.386Z,115
2018-07-24T13:24:56.836Z,115
2018-07-24T13:26:11.516Z,110
2018-07-24T13:27:26.509Z,105
2018-07-24T13:28:40.998Z,105
2018-07-24T13:29:55.741Z,105
2018-07-24T13:31:09.907Z,105
2018-07-24T13:32:24.777Z,110
2018-07-24T13:33:39.494Z,115
2018-07-24T13:34:54.200Z,115
2018-07-24T13:36:08.933Z,115
2018-07-24T13:37:23.243Z,125
2018-07-24T13:38:38.286Z,140
2018-07-24T13:39:52.996Z,140
2018-07-24T13:41:07.515Z,155
2018-07-24T13:42:22.306Z,155
2018-07-24T13:43:37.086Z,145
2018-07-24T13:44:51.804Z,160
2018-07-24T13:46:07.234Z,140
2018-07-24T13:47:22.163Z,125
2018-07-24T13:48:36.631Z,115
2018-07-24T13:49:51.348Z,115
2018-07-24T13:51:06.052Z,120
2018-07-24T13:52:21.029Z,110
2018-07-24T13:53:35.518Z,110
2018-07-24T13:54:49.956Z,115
2018-07-24T13:56:04.931Z,120
2018-07-24T13:57:19.266Z,115
2018-07-24T13:58:34.002Z,115
2018-07-24T13:59:48.959Z,110
2018-07-24T14:01:03.460Z,120
2018-07-24T14:02:17.943Z,120
2018-07-24T14:03:32.916Z,130
2018-07-24T14:04:47.403Z,135
2018-07-24T14:06:01.653Z,130
2018-07-24T14:07:16.107Z,130
2018-07-24T14:08:31.255Z,120
2018-07-24T14:09:45.983Z,115
2018-07-24T14:11:00.947Z,120
2018-07-24T14:12:15.636Z,125
2018-07-24T14:13:29.975Z,125
2018-07-24T14:14:44.205Z,135
2018-07-24T14:15:58.929Z,125
2018-07-24T14:17:13.648Z,125
2018-07-24T14:18:28.167Z,120
2018-07-24T14:19:42.869Z,130
2018-07-24T14:20:57.816Z,120
2018-07-24T14:22:12.624Z,115
2018-07-24T14:23:27.724Z,120
2018-07-24T14:24:42.647Z,115
2018-07-24T14:25:56.871Z,120
2018-07-24T14:27:11.065Z,110
2018-07-24T14:28:25.020Z,115
2018-07-24T14:29:39.755Z,120
2018-07-24T14:30:54.475Z,125
2018-07-24T14:32:08.912Z,130
2018-07-24T14:33:23.950Z,125
2018-07-24T14:34:38.404Z,120
2018-07-24T14:35:52.350Z,120
2018-07-24T14:37:07.469Z,115
2018-07-24T14:38:21.945Z,115
2018-07-24T14:39:36.526Z,110
2018-07-24T14:40:50.287Z,110
2018-07-24T14:42:04.996Z,110
2018-07-24T14:43:18.992Z,115
2018-07-24T14:44:33.633Z,115
2018-07-24T14:45:48.609Z,120
2018-07-24T14:47:02.832Z,120
2018-07-24T14:48:17.327Z,115
2018-07-24T14:49:32.047Z,110
2018-07-24T14:50:46.768Z,110
2018-07-24T14:52:01.777Z,110
2018-07-24T14:53:16.230Z,110
2018-07-24T14:54:31.142Z,110
2018-07-24T14:55:45.859Z,120
2018-07-24T14:57:00.337Z,130
2018-07-24T14:58:14.819Z,135
2018-07-24T14:59:29.637Z,145
2018-07-24T15:00:44.109Z,145
2018-07-24T15:01:58.835Z,140
2018-07-24T15:03:12.819Z,130
2018-07-24T15:04:27.269Z,125
2018-07-24T15:05:41.674Z,120
2018-07-24T15:06:56.123Z,120
2018-07-24T15:08:10.823Z,115
2018-07-24T15:09:25.006Z,115
2018-07-24T15:10:39.763Z,115
2018-07-24T15:11:54.491Z,115
2018-07-24T15:13:08.507Z,115
2018-07-24T15:14:23.349Z,120
2018-07-24T15:15:37.943Z,115
2018-07-24T15:16:52.688Z,115
2018-07-24T15:18:06.661Z,115
2018-07-24T15:19:21.126Z,110
2018-07-24T15:20:36.211Z,110
2018-07-24T15:21:50.868Z,110
2018-07-24T15:23:05.593Z,115
2018-07-24T15:24:20.362Z,115
2018-07-24T15:25:34.952Z,110
2018-07-24T15:26:49.677Z,110
2018-07-24T15:28:04.396Z,110
2018-07-24T15:29:19.092Z,110
2018-07-24T15:30:33.488Z,110
2018-07-24T15:31:48.332Z,110
2018-07-24T15:33:02.751Z,110
2018-07-24T15:34:17.089Z,110
2018-07-24T15:35:31.840Z,110
2018-07-24T15:36:45.810Z,115
2018-07-24T15:38:00.276Z,110
2018-07-24T15:39:14.770Z,110
2018-07-24T15:40:29.277Z,110
2018-07-24T15:41:43.498Z,110
2018-07-24T15:42:57.702Z,110
2018-07-24T15:44:12.466Z,110
2018-07-24T15:45:27.185Z,110
2018-07-24T15:46:41.833Z,110
2018-07-24T15:47:56.866Z,105
2018-07-24T15:49:11.074Z,105
2018-07-24T15:50:25.551Z,110
2018-07-24T15:51:40.629Z,110
2018-07-24T15:52:54.864Z,110
2018-07-24T15:54:08.810Z,110
2018-07-24T15:55:23.809Z,105
2018-07-24T15:56:38.646Z,105
2018-07-24T15:57:53.226Z,110
2018-07-24T15:59:08.352Z,105
2018-07-24T16:00:22.830Z,110
2018-07-24T16:01:37.639Z,105
2018-07-24T16:02:52.402Z,115
2018-07-24T16:04:06.664Z,120
2018-07-24T16:05:21.474Z,120
2018-07-24T16:06:36.214Z,125
2018-07-24T16:07:50.517Z,120
2018-07-24T16:09:04.965Z,120
2018-07-24T16:10:19.648Z,115
2018-07-24T16:11:33.652Z,115
2018-07-24T16:12:48.109Z,110
2018-07-24T16:14:02.561Z,115
2018-07-24T16:15:16.873Z,115
2018-07-24T16:16:31.882Z,115
2018-07-24T16:17:46.349Z,115
2018-07-24T16:19:01.329Z,110
2018-07-24T16:20:15.823Z,105
2018-07-24T16:21:29.930Z,110
2018-07-24T16:22:44.499Z,100
2018-07-24T16:23:58.984Z,100
2018-07-24T16:25:13.618Z,100
2018-07-24T16:26:27.916Z,100
2018-07-24T16:27:42.533Z,100
2018-07-24T16:28:56.717Z,95
2018-07-24T16:30:11.428Z,95
2018-07-24T16:31:26.152Z,95
2018-07-24T16:32:40.734Z,90
2018-07-24T16:33:54.904Z,95
2018-07-24T16:35:09.870Z,95
2018-07-24T16:36:24.882Z,85
2018-07-24T16:37:39.014Z,85
2018-07-24T16:38:53.740Z,95
2018-07-24T16:40:08.724Z,85
2018-07-24T16:41:23.468Z,85
2018-07-24T16:42:38.354Z,85
2018-07-24T16:43:52.483Z,90
2018-07-24T16:45:06.671Z,85
2018-07-24T16:46:20.932Z,80
2018-07-24T16:47:35.353Z,90
2018-07-24T16:48:50.073Z,90
2018-07-24T16:50:04.795Z,80
2018-07-24T16:51:18.768Z,80
2018-07-24T16:52:32.963Z,85
2018-07-24T16:53:47.689Z,80
2018-07-24T16:55:01.639Z,85
2018-07-24T16:56:16.408Z,85
2018-07-24T16:57:30.961Z,85
2018-07-24T16:58:45.871Z,85
2018-07-24T17:00:00.322Z,85
2018-07-24T17:01:14.566Z,85
2018-07-24T17:02:29.525Z,85
2018-07-24T17:03:44.162Z,80
2018-07-24T17:04:58.646Z,80
2018-07-24T17:06:13.654Z,80
2018-07-24T17:07:28.117Z,80
2018-07-24T17:08:43.121Z,80
2018-07-24T17:09:57.854Z,80
2018-07-24T17:11:12.231Z,80
2018-07-24T17:12:26.706Z,75
2018-07-24T17:13:41.831Z,80
2018-07-24T17:14:56.405Z,75
2018-07-24T17:16:10.890Z,75
2018-07-24T17:17:25.897Z,75
2018-07-24T17:18:40.101Z,75
2018-07-24T17:19:55.126Z,75
2018-07-24T17:21:09.074Z,75
2018-07-24T17:22:23.336Z,75
2018-07-24T17:23:38.176Z,75
2018-07-24T17:24:52.379Z,75
2018-07-24T17:26:06.892Z,75
2018-07-24T17:27:21.488Z,70
2018-07-24T17:28:36.724Z,70
2018-07-24T17:29:51.637Z,65
2018-07-24T17:31:06.336Z,65
2018-07-24T17:32:20.292Z,65
2018-07-24T17:33:34.773Z,65
2018-07-24T17:34:49.883Z,65
2018-07-24T17:36:04.724Z,65
2018-07-24T17:37:19.457Z,65
2018-07-24T17:38:34.195Z,60